WetterOnline ( https://www.wetteronline.de )

Wetter aktuell Frontone

Aktuelles Wetter: Frontone (574m)

6-stündlich | Neueste Meldungen
Ortszeit Temperatur Wetter
Mi, 06.07. 14:00 25.0° C wolkig
Mi, 06.07. 8:00 23.0° C leicht bewölkt
Mi, 06.07. 2:00 23.8° C wolkenlos
Di, 05.07. 20:00 27.0° C leicht bewölkt
Di, 05.07. 14:00 32.0° C leicht bewölkt
Di, 05.07. 8:00 23.0° C wolkenlos
Di, 05.07. 2:00 23.8° C wolkenlos
Mo, 04.07. 20:00 29.8° C wolkenlos
Ortszeit Temperatur Wetter
Mi, 06.07. 14:00 25.0° C wolkig
Mi, 06.07. 13:00 30.2° C leicht bewölkt
Mi, 06.07. 12:00 29.4° C leicht bewölkt
Mi, 06.07. 11:00 27.0° C leicht bewölkt
Mi, 06.07. 10:00 25.8° C leicht bewölkt
Mi, 06.07. 9:00 24.0° C leicht bewölkt
Mi, 06.07. 8:00 23.0° C leicht bewölkt
Ortszeit Relative Feuchte Sichtweite
Mi, 06.07. 14:00 64% 15 km
Mi, 06.07. 8:00 72% 40 km
Mi, 06.07. 2:00 63% 40 km
Di, 05.07. 20:00 59% 40 km
Di, 05.07. 14:00 37% 50 km
Di, 05.07. 8:00 68% 20 km
Di, 05.07. 2:00 60% 25 km
Mo, 04.07. 20:00 50% 25 km
Ortszeit Relative Feuchte Sichtweite
Mi, 06.07. 14:00 64% 15 km
Mi, 06.07. 13:00 52% 20 km
Mi, 06.07. 12:00 58% 30 km
Mi, 06.07. 11:00 65% 30 km
Mi, 06.07. 10:00 76% 20 km
Mi, 06.07. 9:00 77% 40 km
Mi, 06.07. 8:00 72% 40 km
Ortszeit Niederschlagsmenge Niederschlagsart
Mi, 06.07. 14:00 0.0 l/m2 in 6 Std. -
Mi, 06.07. 8:00 0.0 l/m2 in 12 Std. -
Mi, 06.07. 2:00 0.0 l/m2 in 6 Std. -
Di, 05.07. 20:00 0.0 l/m2 in 12 Std. -
Di, 05.07. 14:00 0.0 l/m2 in 6 Std. -
Di, 05.07. 8:00 0.0 l/m2 in 12 Std. -
Di, 05.07. 2:00 0.0 l/m2 in 6 Std. -
Mo, 04.07. 20:00 0.0 l/m2 in 12 Std. -
Ortszeit Niederschlagsmenge Niederschlagsart
Mi, 06.07. 14:00 keine Meldung -
Mi, 06.07. 13:00 keine Meldung -
Mi, 06.07. 12:00 keine Meldung -
Mi, 06.07. 11:00 keine Meldung -
Mi, 06.07. 10:00 keine Meldung -
Mi, 06.07. 9:00 keine Meldung -
Mi, 06.07. 8:00 keine Meldung -
Ortszeit Stärke Spitze Richtung
km/h Bft. km/h Grad Sektor
Mi, 06.07. 14:00 19 3 - 20° N
Mi, 06.07. 8:00 7 2 - 270° W
Mi, 06.07. 2:00 9 2 - 200° S
Di, 05.07. 20:00 7 2 - 300° NW
Di, 05.07. 14:00 11 2 - 280° W
Di, 05.07. 8:00 0 0 - - -
Di, 05.07. 2:00 9 2 - 260° W
Mo, 04.07. 20:00 4 1 - 300° NW
Ortszeit Stärke Spitze Richtung
km/h Bft. km/h Grad Sektor
Mi, 06.07. 14:00 19 3 - 20° N
Mi, 06.07. 13:00 9 2 - 200° S
Mi, 06.07. 12:00 6 1 - 250° W
Mi, 06.07. 11:00 9 2 - 270° W
Mi, 06.07. 10:00 6 1 - 250° W
Mi, 06.07. 9:00 7 2 - 270° W
Mi, 06.07. 8:00 7 2 - 270° W
Ortszeit Untergrenze Bedeckung Gattung
total tief tief mittel hoch
Mi, 06.07. 14:00 450 m 6/8 6/8 Cu - -
Mi, 06.07. 8:00 750 m 2/8 2/8 Cu - -
Mi, 06.07. 2:00 - 0/8 0/8 - - -
Di, 05.07. 20:00 750 m 3/8 1/8 Cu Ac -
Di, 05.07. 14:00 750 m 3/8 3/8 Cu - -
Di, 05.07. 8:00 - 0/8 0/8 - - -
Di, 05.07. 2:00 - 0/8 0/8 - - -
Mo, 04.07. 20:00 - 0/8 0/8 - - -
Ortszeit Bedeckungsgrad in Achtel und Wolkenuntergrenze
Mi, 06.07. 14:00 3(450m) 3(600m)
Mi, 06.07. 13:00 4(750m)
Mi, 06.07. 12:00 2(900m)
Mi, 06.07. 11:00 2(900m)
Mi, 06.07. 10:00 2(900m)
Mi, 06.07. 9:00 3(750m)
Mi, 06.07. 8:00 2(750m)
Ortszeit Stationsdruck (hPa) Tendenz (hPa in 3 Std.)
Mi, 06.07. 14:00 951 0,0
Mi, 06.07. 8:00 950 + 0,7
Mi, 06.07. 2:00 950 + 0,4
Di, 05.07. 20:00 948 - 0,1
Di, 05.07. 14:00 949 0,0
Di, 05.07. 8:00 949 - 0,2
Di, 05.07. 2:00 952 + 2,8
Mo, 04.07. 20:00 948 - 0,5
Ortszeit Stationsdruck (hPa) Tendenz (hPa in 3 Std.)
Mi, 06.07. 14:00 951 0,0
Mi, 06.07. 13:00 951 0,0
Mi, 06.07. 12:00 951 + 0,4
Mi, 06.07. 11:00 951 + 0,6
Mi, 06.07. 10:00 951 + 1,0
Mi, 06.07. 9:00 951 + 0,6
Mi, 06.07. 8:00 950 + 0,7
Ortszeit Schneehöhe (cm)
Mi, 06.07. 14:00 -
Mi, 06.07. 8:00 0
Mi, 06.07. 2:00 -
Di, 05.07. 20:00 -
Di, 05.07. 14:00 -
Di, 05.07. 8:00 0
Di, 05.07. 2:00 -
Mo, 04.07. 20:00 -
Ortszeit Schneehöhe (cm)
Mi, 06.07. 14:00 -
Mi, 06.07. 13:00 -
Mi, 06.07. 12:00 -
Mi, 06.07. 11:00 -
Mi, 06.07. 10:00 -
Mi, 06.07. 9:00 -
Mi, 06.07. 8:00 0
Link zu dieser Seite / Seite empfehlen

Das Wetter in ...